This is the latest recevied weather packets stored in our database for station/object EFHKFMI. If no packets are shown the sender has not sent any weather packets the latest 1 day(s).
| Time | Temp. | Humidity | Pressure | Rain* | Wind** | Luminosity | Snow |
|---|---|---|---|---|---|---|---|
| 1836274168 | 15° C | 93% | 1009.2 hPa | 0 mm | 4.47 m/s, 198° | - | - |
| 1778042839 | 3.89° C | 67% | 1011.3 hPa | 0 mm | 4.02 m/s, 284° | - | - |
| 1778041639 | 3.33° C | 71% | 1011.2 hPa | 0 mm | 4.02 m/s, 285° | - | - |
| 1778040438 | 2.78° C | 74% | 1011.1 hPa | 0 mm | 3.13 m/s, 266° | - | - |
| 1778039238 | 1.67° C | 77% | 1010.9 hPa | 0 mm | 2.68 m/s, 251° | - | - |
| 1778038038 | 1.11° C | 80% | 1010.7 hPa | 0 mm | 2.24 m/s, 247° | - | - |
| 1778036839 | -0.56° C | 84% | 1010.6 hPa | 0 mm | 2.68 m/s, 253° | - | - |
| 1778035638 | -1.67° C | 85% | 1010.4 hPa | 0 mm | 2.68 m/s, 246° | - | - |
| 1778034438 | -1.11° C | 84% | 1010.2 hPa | 0 mm | 2.68 m/s, 258° | - | - |
| 1778033238 | -1.11° C | 84% | 1010 hPa | 0 mm | 2.68 m/s, 269° | - | - |
| 1778032038 | -1.11° C | 85% | 1009.9 hPa | 0 mm | 2.68 m/s, 275° | - | - |
| 1778030838 | -1.67° C | 86% | 1009.9 hPa | 0 mm | 2.24 m/s, 275° | - | - |
| 1778029638 | -0.56° C | 82% | 1009.7 hPa | 0 mm | 2.68 m/s, 269° | - | - |
| 1778028438 | 0° C | 78% | 1009.5 hPa | 0 mm | 2.68 m/s, 258° | - | - |
| 1778027238 | 1.11° C | 74% | 1009.3 hPa | 0 mm | 3.13 m/s, 263° | - | - |
| 1778026037 | 1.67° C | 73% | 1009.2 hPa | 0 mm | 3.58 m/s, 263° | - | - |
| 1778024838 | 1.67° C | 71% | 1009 hPa | 0 mm | 3.13 m/s, 268° | - | - |
| 1778023638 | 1.67° C | 69% | 1008.8 hPa | 0 mm | 4.02 m/s, 274° | - | - |
| 1778022438 | 1.67° C | 70% | 1008.7 hPa | 0 mm | 3.58 m/s, 280° | - | - |
| 1778021237 | 2.22° C | 68% | 1008.6 hPa | 0 mm | 3.13 m/s, 276° | - | - |
| 1778020037 | 2.78° C | 66% | 1008.5 hPa | 0 mm | 3.58 m/s, 274° | - | - |
| 1778018837 | 3.33° C | 63% | 1008.4 hPa | 0 mm | 3.13 m/s, 275° | - | - |
| 1778017637 | 3.33° C | 62% | 1008.3 hPa | 0 mm | 3.13 m/s, 270° | - | - |
| 1778016438 | 3.33° C | 60% | 1008.1 hPa | 0 mm | 3.13 m/s, 271° | - | - |
| 1778015237 | 3.89° C | 59% | 1007.9 hPa | 0 mm | 3.13 m/s, 276° | - | - |
* Rain latest hour (hover to see other rain measurements)
** Current wind speed in m/s (hover to see current wind gust speed)